West Wellow, United Kingdom
Current Conditions -  °F | °C
As of 5:20 PM on Thursday 30 Oct 2014 (Local Time) from EGHI Reporting Station
Broken Clouds Broken Clouds  
Wind Chill: 57°   Ceiling: 1800
Heat Index: 57°   Visibility: 5mi
Dew Point: 55°   Wind: 1mph
Humidity: 94%   Direction: 140°SE
Pressure: 30.06"   Gusts: NA
Location:  50.97°N, 1.58°W
Report Text: EGHI 301720Z 14001KT 8000 FEW016 BKN018 14/13 Q1018
Loading
Personal Weather Stations






























Interactive Weather Map New forecast layout! Learn more

10-Day Weather Forecast

Advertisements
Track Severe Weather on mobile